createdAt,value
2019-01-19T00:00:27.662Z,10.40
2019-01-19T00:15:47.252Z,8.97
2019-01-19T00:28:41.619Z,9.07
2019-01-19T00:33:24.646Z,10.05
2019-01-19T00:39:52.059Z,8.90
2019-01-19T00:44:05.799Z,9.93
2019-01-19T00:48:46.784Z,9.28
2019-01-19T00:53:16.795Z,9.10
2019-01-19T00:57:28.849Z,9.20
2019-01-19T01:02:06.587Z,8.83
2019-01-19T01:06:53.261Z,8.20
2019-01-19T01:11:20.829Z,7.83
2019-01-19T01:16:12.468Z,8.33
2019-01-19T01:21:04.142Z,8.38
2019-01-19T01:25:44.629Z,8.10
2019-01-19T01:30:36.540Z,9.67
2019-01-19T01:35:32.751Z,8.68
2019-01-19T01:40:19.844Z,8.60
2019-01-19T01:44:55.140Z,8.20
2019-01-19T01:51:39.963Z,8.43
2019-01-19T01:55:50.459Z,8.33
2019-01-19T02:00:42.480Z,8.60
2019-01-19T02:05:25.168Z,8.00
2019-01-19T02:23:41.070Z,9.77
2019-01-19T02:28:14.835Z,9.30
2019-01-19T02:32:48.951Z,9.03
2019-01-19T02:37:28.542Z,9.58
2019-01-19T03:04:13.842Z,6.00
2019-01-19T03:08:59.178Z,6.40
2019-01-19T03:13:56.592Z,6.00
2019-01-19T03:22:25.679Z,5.90
2019-01-19T03:29:54.920Z,6.00
2019-01-19T03:34:45.368Z,6.63
2019-01-19T03:40:07.507Z,6.17
2019-01-19T03:44:37.917Z,7.00
2019-01-19T03:50:54.947Z,6.97
2019-01-19T03:56:05.385Z,6.33
2019-01-19T04:08:42.700Z,6.20
2019-01-19T04:13:22.340Z,6.07
2019-01-19T04:17:51.659Z,6.17
2019-01-19T04:26:52.332Z,6.23
2019-01-19T04:46:23.544Z,7.27
2019-01-19T04:55:09.158Z,6.13
2019-01-19T05:02:59.207Z,6.30
2019-01-19T05:10:48.911Z,6.13
2019-01-19T05:14:53.437Z,6.07
2019-01-19T05:19:39.760Z,6.73
2019-01-19T05:23:44.599Z,6.40
2019-01-19T05:27:49.240Z,6.83
2019-01-19T05:31:53.840Z,6.77
2019-01-19T05:45:40.553Z,6.83
2019-01-19T05:53:03.140Z,6.83
2019-01-19T06:01:47.155Z,7.20
2019-01-19T06:11:31.958Z,6.47
2019-01-19T06:20:36.429Z,7.30
2019-01-19T06:24:40.983Z,6.60
2019-01-19T06:30:18.795Z,7.10
2019-01-19T06:34:49.069Z,7.00
2019-01-19T06:41:58.901Z,7.10
2019-01-19T06:55:54.998Z,7.37
2019-01-19T07:00:47.495Z,7.30
2019-01-19T07:04:52.030Z,6.40
2019-01-19T07:15:35.803Z,8.07
2019-01-19T07:22:14.280Z,7.57
2019-01-19T07:27:37.572Z,7.40
2019-01-19T07:33:09.819Z,8.00
2019-01-19T07:40:09.410Z,8.53
2019-01-19T07:46:55.957Z,8.13
2019-01-19T07:50:56.991Z,7.90
2019-01-19T07:55:16.269Z,8.13
2019-01-19T08:00:17.223Z,7.07
2019-01-19T08:08:47.691Z,6.90
2019-01-19T08:12:52.261Z,9.47
2019-01-19T08:16:56.785Z,7.93
2019-01-19T08:21:01.408Z,8.20
2019-01-19T08:25:06.866Z,7.90
2019-01-19T08:29:11.437Z,8.00
2019-01-19T08:34:20.350Z,8.60
2019-01-19T08:39:01.848Z,8.93
2019-01-19T08:43:38.245Z,9.73
2019-01-19T08:51:43.129Z,8.40
2019-01-19T09:00:52.067Z,7.50
2019-01-19T09:08:45.843Z,7.73
2019-01-19T09:19:16.557Z,6.93
2019-01-19T09:23:25.192Z,5.67
2019-01-19T09:40:15.779Z,5.53
2019-01-19T09:46:20.419Z,5.80
2019-01-19T09:50:24.939Z,5.53
2019-01-19T09:54:29.477Z,4.47
2019-01-19T09:58:33.999Z,3.87
2019-01-19T10:23:22.071Z,4.63
2019-01-19T10:27:26.608Z,4.83
2019-01-19T10:36:05.098Z,3.70
2019-01-19T10:40:11.019Z,3.70
2019-01-19T10:45:02.048Z,3.50
2019-01-19T10:58:30.195Z,1.47
2019-01-19T11:04:32.772Z,1.50
2019-01-19T11:13:41.912Z,1.97
2019-01-19T11:20:23.183Z,1.70
2019-01-19T11:24:27.729Z,1.40
2019-01-19T11:28:32.252Z,1.60
2019-01-19T11:32:36.799Z,1.10
2019-01-19T11:43:35.759Z,1.13
2019-01-19T11:48:57.091Z,1.70
2019-01-19T11:53:01.708Z,1.50
2019-01-19T11:57:06.192Z,1.93
2019-01-19T12:01:10.733Z,1.80
2019-01-19T12:05:15.868Z,1.70
2019-01-19T12:09:20.382Z,1.83
2019-01-19T12:13:24.983Z,1.90
2019-01-19T12:20:50.507Z,1.30
2019-01-19T12:24:55.048Z,1.60
2019-01-19T12:28:59.559Z,1.60
2019-01-19T12:33:04.176Z,1.67
2019-01-19T12:44:09.305Z,1.50
2019-01-19T12:49:47.527Z,1.50
2019-01-19T12:56:49.378Z,1.43
2019-01-19T13:07:03.519Z,1.57
2019-01-19T13:16:11.487Z,1.63
2019-01-19T13:30:09.609Z,1.60
2019-01-19T13:34:53.407Z,1.83
2019-01-19T13:39:35.059Z,1.63
2019-01-19T13:44:32.845Z,1.50
2019-01-19T13:49:14.299Z,1.80
2019-01-19T13:53:43.971Z,2.20
2019-01-19T13:58:16.475Z,1.97
2019-01-19T14:11:56.166Z,1.97
2019-01-19T14:17:12.987Z,2.30
2019-01-19T14:32:29.341Z,2.13
2019-01-19T14:42:21.573Z,2.73
2019-01-19T14:47:01.631Z,2.40
2019-01-19T14:57:57.149Z,4.00
2019-01-19T15:05:44.359Z,2.17
2019-01-19T15:15:26.543Z,1.93
2019-01-19T15:20:09.948Z,2.70
2019-01-19T15:24:33.117Z,4.07
2019-01-19T15:58:31.476Z,4.03
2019-01-19T16:03:07.547Z,3.03
2019-01-19T16:07:51.962Z,4.33
2019-01-19T16:12:05.612Z,3.60
2019-01-19T16:16:56.283Z,3.33
2019-01-19T16:26:55.528Z,3.40
2019-01-19T16:31:37.904Z,3.47
2019-01-19T16:36:32.487Z,3.87
2019-01-19T16:44:57.300Z,3.50
2019-01-19T16:51:48.075Z,3.77
2019-01-19T17:02:39.791Z,4.13
2019-01-19T17:07:21.954Z,5.37
2019-01-19T17:22:41.996Z,5.50
2019-01-19T17:27:17.009Z,5.83
2019-01-19T17:31:58.183Z,4.97
2019-01-19T17:36:28.599Z,5.42
2019-01-19T17:41:13.028Z,4.87
2019-01-19T17:45:48.106Z,4.83
2019-01-19T17:50:23.187Z,4.50
2019-01-19T18:03:10.250Z,4.37
2019-01-19T18:12:35.232Z,4.37
2019-01-19T18:27:52.374Z,3.90
2019-01-19T18:35:33.162Z,6.73
2019-01-19T18:40:25.711Z,6.75
2019-01-19T18:45:02.302Z,6.30
2019-01-19T18:49:51.449Z,6.37
2019-01-19T18:54:21.435Z,6.17
2019-01-19T18:59:08.921Z,6.47
2019-01-19T19:03:54.087Z,6.03
2019-01-19T19:08:34.725Z,6.15
2019-01-19T19:13:29.178Z,5.40
2019-01-19T19:18:17.899Z,5.87
2019-01-19T19:22:53.854Z,6.60
2019-01-19T19:27:28.088Z,6.20
2019-01-19T19:32:07.295Z,6.37
2019-01-19T19:36:34.895Z,6.40
2019-01-19T19:41:05.234Z,5.97
2019-01-19T19:45:42.348Z,6.47
2019-01-19T19:50:33.972Z,6.25
2019-01-19T19:54:38.504Z,6.33
2019-01-19T19:58:43.078Z,6.25
2019-01-19T20:02:47.583Z,6.60
2019-01-19T20:06:52.132Z,6.87
2019-01-19T20:10:56.661Z,7.15
2019-01-19T20:15:01.201Z,6.17
2019-01-19T20:19:05.948Z,6.00
2019-01-19T20:23:10.432Z,6.40
2019-01-19T20:27:14.959Z,7.57
2019-01-19T20:31:19.503Z,7.92
2019-01-19T20:35:24.060Z,7.72
2019-01-19T20:39:28.608Z,7.22
2019-01-19T20:43:33.236Z,7.00
2019-01-19T20:47:37.822Z,6.05
2019-01-19T20:51:42.351Z,7.17
2019-01-19T20:55:46.847Z,6.95
2019-01-19T20:59:51.394Z,7.30
2019-01-19T21:03:55.920Z,6.90
2019-01-19T21:08:00.438Z,5.90
2019-01-19T21:12:05.170Z,6.85
2019-01-19T21:16:09.704Z,7.75
2019-01-19T21:20:14.924Z,7.78
2019-01-19T21:24:19.464Z,7.58
2019-01-19T21:28:23.979Z,8.10
2019-01-19T21:32:28.483Z,7.43
2019-01-19T21:36:33.003Z,7.55
2019-01-19T21:40:39.187Z,7.53
2019-01-19T21:44:43.919Z,8.03
2019-01-19T21:48:48.602Z,6.10
2019-01-19T21:52:53.096Z,7.37
2019-01-19T21:56:57.619Z,9.05
2019-01-19T22:01:02.168Z,9.13
2019-01-19T22:05:07.446Z,8.70
2019-01-19T22:09:11.967Z,8.15
2019-01-19T22:13:16.511Z,8.65
2019-01-19T22:17:21.063Z,8.33
2019-01-19T22:21:25.600Z,9.75
2019-01-19T22:25:30.136Z,10.90
2019-01-19T22:29:34.675Z,10.30
2019-01-19T22:33:39.167Z,9.93
2019-01-19T22:37:43.744Z,10.32
2019-01-19T22:41:48.280Z,10.35
2019-01-19T22:45:52.818Z,12.50
2019-01-19T22:49:57.371Z,13.13
2019-01-19T22:54:01.919Z,13.78
2019-01-19T22:58:06.470Z,11.73
2019-01-19T23:02:12.843Z,11.45
2019-01-19T23:06:17.380Z,11.87
2019-01-19T23:10:21.895Z,10.77
2019-01-19T23:14:26.955Z,11.93
2019-01-19T23:18:31.487Z,11.93
2019-01-19T23:22:36.238Z,11.85
2019-01-19T23:26:41.078Z,12.25
2019-01-19T23:31:12.135Z,12.43
2019-01-19T23:35:34.783Z,10.63
2019-01-19T23:41:21.976Z,9.87
2019-01-19T23:46:17.937Z,12.93
2019-01-19T23:50:22.431Z,13.37
2019-01-19T23:54:26.954Z,12.03
2019-01-19T23:58:31.516Z,12.45
